Anniston, AL

2:48 PM CDT on April 25, 2015 (GMT -0500)
West Anniston | | Change Station
CLOSE
Current Station
Personal Weather Station
Location: Anniston, AL
Elevation: 728 ft
Nearby Weather Stations

Elev 728 ft 33.66 °N, 85.84 °W | Updated 8 minutes ago

Mostly Cloudy
Mostly Cloudy
79.5 °F
Feels Like 81 °F
N
4.7
Wind Variable Wind from WSW

Today
High -- | Low -- °F
--% Chance of Precip.
Yesterday
High -- | Low -- °F
Precip. -- in
6:01 AM 7:21 PM
Waxing Crescent, 48% visible
Pressure 29.72 in
Visibility 10.0 miles
Clouds Scattered Clouds 3000 ft
Mostly Cloudy 3500 ft
Mostly Cloudy 5000 ft
Heat Index 81 °F
Dew Point 63 °F
Humidity 58%
Rainfall 2.00 in
Snow Depth Not available.
UV 6 out of 12
Pollen .90 out of 12
Air Quality Not available.
Flu Activity No Activity
METAR KANB 251853Z AUTO 24008KT 10SM SCT030 BKN035 BKN050 25/19 A2973 RMK AO2 SLP062 T02500194

More Conditions Fewer Conditions

Pressure 29.72 in
Visibility 10.0 miles
Clouds Scattered Clouds 3000 ft
Mostly Cloudy 3500 ft
Mostly Cloudy 5000 ft
Heat Index 81 °F
Dew Point 63 °F
Humidity 58%
Rainfall 2.00 in
Snow Depth Not available.
UV 6 out of 12
Pollen .90 out of 12
Air Quality Not available.
Flu Activity No Activity
METAR KANB 251853Z AUTO 24008KT 10SM SCT030 BKN035 BKN050 25/19 A2973 RMK AO2 SLP062 T02500194

More Conditions Fewer Conditions

10-Day Weather Forecast

Almanac

Astronomy

Apr. 25, 2015 Rise Set
Actual Time
Civil Twilight
Nautical Twilight
Astronomical Twilight
Moon
Length of Visible Light
Length of Day
Tomorrow will be .
, % of the Moon is Illuminated

Today's Extremes

State Highs State Lows

Community

WunderPhotos

Upload Photos

1,816,791 photos uploaded!

WunderBlogs® & News

Nearby

Air Quality

  Air Quality AQ Index Pollutant
Not available.

Snow Depth

Station Depth Elevation

Earthquake Activity

City Distance Mag. Time & Date
Minimum magnitude displayed is 2.5.

Coastal Water Temperatures

Place Temperature

Stations

Nearby Weather Stations

Station Location Temp. Windchill Dew Point Humidity Wind Precip. Elev Updated Type